This is the latest recevied weather packets stored in our database for station/object KC3SOZ. If no packets are shown the sender has not sent any weather packets the latest 10 day(s).
| Time | Temp. | Humidity | Pressure | Rain* | Wind** | Luminosity | Snow |
|---|---|---|---|---|---|---|---|
| 1777586542 | 10° C | 93% | 1011.2 hPa | 0 mm | - | 38 W/m² | - |
| 1777586237 | 10.56° C | 94% | 1011.1 hPa | 0 mm | - | 40 W/m² | - |
| 1777585935 | 10.56° C | 93% | 1011 hPa | 0 mm | - | 37 W/m² | - |
| 1777585630 | 10.56° C | 92% | 1010.8 hPa | 0 mm | - | 36 W/m² | - |
| 1777585325 | 10.56° C | 92% | 1010.8 hPa | 0 mm | - | 57 W/m² | - |
| 1777585021 | 11.11° C | 93% | 1010.8 hPa | 0 mm | - | 65 W/m² | - |
| 1777584717 | 11.11° C | 92% | 1010.7 hPa | 0 mm | - | 73 W/m² | - |
| 1777584415 | 11.11° C | 92% | 1010.7 hPa | 0 mm | - | 87 W/m² | - |
| 1777584111 | 11.11° C | 92% | 1010.6 hPa | 0 mm | - | 109 W/m² | - |
| 1777583810 | 10.56° C | 92% | 1010.5 hPa | 0 mm | - | 130 W/m² | - |
| 1777583505 | 10.56° C | 93% | 1010.5 hPa | 0 mm | - | 140 W/m² | - |
| 1777583199 | 10.56° C | 95% | 1010.5 hPa | 0 mm | - | 85 W/m² | - |
| 1777582895 | 10.56° C | 96% | 1010.6 hPa | 0 mm | - | 64 W/m² | - |
| 1777582593 | 10.56° C | 96% | 1010.2 hPa | 0 mm | - | 93 W/m² | - |
| 1777582288 | 10.56° C | 97% | 1010.1 hPa | 0 mm | - | 141 W/m² | - |
| 1777581985 | 10.56° C | 98% | 1009.9 hPa | 0 mm | - | 113 W/m² | - |
| 1777581680 | 10.56° C | 96% | 1009.7 hPa | 1.27 mm | - | 106 W/m² | - |
| 1777581375 | 10.56° C | 95% | 1009.7 hPa | 0 mm | - | 85 W/m² | - |
| 1777581070 | 10.56° C | 94% | 1009.6 hPa | 0 mm | - | 77 W/m² | - |
| 1777580769 | 11.11° C | 93% | 1009.5 hPa | 1.78 mm | - | 88 W/m² | - |
| 1777580465 | 11.11° C | 92% | 1009.3 hPa | 1.78 mm | - | 78 W/m² | - |
| 1777580160 | 11.67° C | 90% | 1009.5 hPa | 3.05 mm | - | 58 W/m² | - |
| 1777579858 | 12.78° C | 83% | 1009 hPa | 3.05 mm | - | 37 W/m² | - |
| 1777579556 | 14.44° C | 69% | 1009.1 hPa | 0 mm | - | 26 W/m² | - |
| 1777579250 | 14.44° C | 66% | 1008.6 hPa | 0 mm | - | 42 W/m² | - |
* Rain latest hour (hover to see other rain measurements)
** Current wind speed in m/s (hover to see current wind gust speed)